createdAt,value
2018-11-05T00:01:27.698Z,11.73
2018-11-05T00:03:55.767Z,10.27
2018-11-05T00:06:23.939Z,14.97
2018-11-05T00:08:51.922Z,14.17
2018-11-05T00:11:20.421Z,14.27
2018-11-05T00:13:48.375Z,15.77
2018-11-05T00:16:16.484Z,14.10
2018-11-05T00:18:44.431Z,14.50
2018-11-05T00:21:12.357Z,16.53
2018-11-05T00:23:40.478Z,15.53
2018-11-05T00:26:08.630Z,15.40
2018-11-05T00:28:36.671Z,14.47
2018-11-05T00:31:05.046Z,14.90
2018-11-05T00:33:33.901Z,15.00
2018-11-05T00:36:02.035Z,13.87
2018-11-05T00:38:30.570Z,16.13
2018-11-05T00:40:58.530Z,15.87
2018-11-05T00:43:26.503Z,17.03
2018-11-05T00:45:56.012Z,11.97
2018-11-05T00:48:24.267Z,14.90
2018-11-05T00:50:52.392Z,13.20
2018-11-05T00:53:20.393Z,15.63
2018-11-05T00:55:48.438Z,18.13
2018-11-05T00:58:16.469Z,18.53
2018-11-05T01:00:44.417Z,19.23
2018-11-05T01:03:12.335Z,20.20
2018-11-05T01:05:40.344Z,20.53
2018-11-05T01:08:08.334Z,23.40
2018-11-05T01:10:36.252Z,21.70
2018-11-05T01:13:04.202Z,22.50
2018-11-05T01:15:32.338Z,15.60
2018-11-05T01:18:00.626Z,21.87
2018-11-05T01:20:28.525Z,22.97
2018-11-05T01:22:56.465Z,20.73
2018-11-05T01:25:24.388Z,19.47
2018-11-05T01:27:52.454Z,18.23
2018-11-05T01:30:20.410Z,19.40
2018-11-05T01:32:48.382Z,18.70
2018-11-05T01:35:16.346Z,15.50
2018-11-05T01:37:44.259Z,18.63
2018-11-05T01:40:13.643Z,19.03
2018-11-05T01:42:41.685Z,18.23
2018-11-05T01:45:11.066Z,18.97
2018-11-05T01:47:39.250Z,16.53
2018-11-05T01:50:08.879Z,14.77
2018-11-05T01:52:36.890Z,16.10
2018-11-05T01:55:05.793Z,14.70
2018-11-05T01:57:33.875Z,15.33
2018-11-05T02:00:01.869Z,13.07
2018-11-05T02:02:30.063Z,13.50
2018-11-05T02:04:58.822Z,14.17
2018-11-05T02:07:26.923Z,13.43
2018-11-05T02:09:54.897Z,13.87
2018-11-05T02:12:22.939Z,12.57
2018-11-05T02:14:51.009Z,12.77
2018-11-05T02:17:18.918Z,11.83
2018-11-05T02:19:47.045Z,11.87
2018-11-05T02:22:15.042Z,11.60
2018-11-05T02:24:43.238Z,11.17
2018-11-05T02:27:11.301Z,11.73
2018-11-05T02:29:39.168Z,11.53
2018-11-05T02:32:07.200Z,11.50
2018-11-05T02:34:35.193Z,11.77
2018-11-05T02:37:03.231Z,11.47
2018-11-05T02:39:31.374Z,10.57
2018-11-05T02:41:59.365Z,11.20
2018-11-05T02:44:27.260Z,11.07
2018-11-05T02:46:55.289Z,12.77
2018-11-05T02:49:23.363Z,11.77
2018-11-05T02:51:51.315Z,11.23
2018-11-05T02:54:19.289Z,10.43
2018-11-05T02:56:47.240Z,12.57
2018-11-05T02:59:15.134Z,11.77
2018-11-05T03:01:43.124Z,13.40
2018-11-05T03:04:10.975Z,13.40
2018-11-05T03:06:38.979Z,12.23
2018-11-05T03:09:09.738Z,12.50
2018-11-05T03:11:37.907Z,11.33
2018-11-05T03:14:06.385Z,12.87
2018-11-05T03:16:34.753Z,12.80
2018-11-05T03:19:02.618Z,12.80
2018-11-05T03:21:30.811Z,14.60
2018-11-05T03:23:58.888Z,14.57
2018-11-05T03:26:27.851Z,14.27
2018-11-05T03:28:55.771Z,16.47
2018-11-05T03:31:24.107Z,17.10
2018-11-05T03:33:52.335Z,18.53
2018-11-05T03:36:20.247Z,19.20
2018-11-05T03:38:48.119Z,21.13
2018-11-05T03:41:16.082Z,19.97
2018-11-05T03:43:44.040Z,20.73
2018-11-05T03:46:12.080Z,19.73
2018-11-05T03:48:40.115Z,21.10
2018-11-05T03:51:08.160Z,21.13
2018-11-05T03:53:36.062Z,20.83
2018-11-05T03:56:04.235Z,24.80
2018-11-05T03:58:32.183Z,24.27
2018-11-05T04:01:00.236Z,25.40
2018-11-05T04:03:28.266Z,25.00
2018-11-05T04:05:56.342Z,21.03
2018-11-05T04:08:25.172Z,25.87
2018-11-05T04:10:53.134Z,24.23
2018-11-05T04:13:21.049Z,27.27
2018-11-05T04:15:49.091Z,23.63
2018-11-05T04:18:17.015Z,23.03
2018-11-05T04:20:44.954Z,18.37
2018-11-05T04:23:12.914Z,24.90
2018-11-05T04:25:40.831Z,25.03
2018-11-05T04:28:08.777Z,14.13
2018-11-05T04:30:37.086Z,18.47
2018-11-05T04:33:05.128Z,16.03
2018-11-05T04:35:33.086Z,18.17
2018-11-05T04:38:01.765Z,23.57
2018-11-05T04:40:30.180Z,20.67
2018-11-05T04:43:00.491Z,23.43
2018-11-05T04:45:28.586Z,26.07
2018-11-05T04:47:57.036Z,16.13
2018-11-05T04:50:24.965Z,24.37
2018-11-05T04:52:53.753Z,19.07
2018-11-05T04:55:21.725Z,19.57
2018-11-05T04:57:49.742Z,23.77
2018-11-05T05:00:18.310Z,21.53
2018-11-05T05:02:46.345Z,21.60
2018-11-05T05:05:15.424Z,20.00
2018-11-05T05:07:43.414Z,21.80
2018-11-05T05:10:11.441Z,21.60
2018-11-05T05:12:40.622Z,24.37
2018-11-05T05:15:09.124Z,23.73
2018-11-05T05:17:37.270Z,21.57
2018-11-05T05:20:07.669Z,23.07
2018-11-05T05:22:37.102Z,24.20
2018-11-05T05:25:05.219Z,24.07
2018-11-05T05:27:33.339Z,22.33
2018-11-05T05:30:01.429Z,21.00
2018-11-05T05:32:30.015Z,26.03
2018-11-05T05:34:58.173Z,21.60
2018-11-05T05:37:26.201Z,21.03
2018-11-05T05:39:54.263Z,20.97
2018-11-05T05:42:22.860Z,16.57
2018-11-05T05:44:50.860Z,20.53
2018-11-05T05:47:18.803Z,22.03
2018-11-05T05:49:46.709Z,21.47
2018-11-05T05:52:14.795Z,20.33
2018-11-05T05:54:42.867Z,20.50
2018-11-05T05:57:10.948Z,19.37
2018-11-05T05:59:39.580Z,19.07
2018-11-05T06:02:08.115Z,19.23
2018-11-05T06:04:36.210Z,19.43
2018-11-05T06:07:05.519Z,18.70
2018-11-05T06:09:33.667Z,19.70
2018-11-05T06:12:03.133Z,20.03
2018-11-05T06:14:31.172Z,17.00
2018-11-05T06:16:59.110Z,18.97
2018-11-05T06:19:27.145Z,17.80
2018-11-05T06:21:55.210Z,18.47
2018-11-05T06:24:23.152Z,17.53
2018-11-05T06:26:51.653Z,17.30
2018-11-05T06:29:19.787Z,18.93
2018-11-05T06:31:47.740Z,17.63
2018-11-05T06:34:15.662Z,20.20
2018-11-05T06:36:43.967Z,23.00
2018-11-05T06:39:12.854Z,23.70
2018-11-05T06:41:41.794Z,21.73
2018-11-05T06:44:09.858Z,19.63
2018-11-05T06:46:38.180Z,20.20
2018-11-05T06:49:06.438Z,18.60
2018-11-05T06:51:34.445Z,17.93
2018-11-05T06:54:03.986Z,18.37
2018-11-05T06:56:32.374Z,28.83
2018-11-05T06:59:00.309Z,32.30
2018-11-05T07:01:29.764Z,20.67
2018-11-05T07:03:57.889Z,26.07
2018-11-05T07:06:26.271Z,23.03
2018-11-05T07:08:54.252Z,20.87
2018-11-05T07:11:22.263Z,28.50
2018-11-05T07:13:50.277Z,20.17
2018-11-05T07:16:18.557Z,19.40
2018-11-05T07:18:46.712Z,17.53
2018-11-05T07:21:14.498Z,17.03
2018-11-05T07:23:42.649Z,19.50
2018-11-05T07:26:10.915Z,19.33
2018-11-05T07:28:38.917Z,17.80
2018-11-05T07:31:06.930Z,17.40
2018-11-05T07:33:37.765Z,16.93
2018-11-05T07:36:06.090Z,16.37
2018-11-05T07:38:35.015Z,17.43
2018-11-05T07:41:03.576Z,17.27
2018-11-05T07:43:33.363Z,16.10
2018-11-05T07:46:01.416Z,15.73
2018-11-05T07:48:31.298Z,16.27
2018-11-05T07:50:59.939Z,12.73
2018-11-05T07:53:28.203Z,15.73
2018-11-05T07:55:58.574Z,14.77
2018-11-05T07:58:26.888Z,15.83
2018-11-05T08:00:56.910Z,14.57
2018-11-05T08:03:33.578Z,22.10
2018-11-05T08:06:02.567Z,16.97
2018-11-05T08:08:30.753Z,18.73
2018-11-05T08:10:58.648Z,17.13
2018-11-05T08:13:26.863Z,19.03
2018-11-05T08:15:55.024Z,16.67
2018-11-05T08:18:22.998Z,15.93
2018-11-05T08:20:51.021Z,16.33
2018-11-05T08:23:19.039Z,16.40
2018-11-05T08:25:47.178Z,17.10
2018-11-05T08:28:15.746Z,15.60
2018-11-05T08:30:43.733Z,15.33
2018-11-05T08:33:13.288Z,14.97
2018-11-05T08:35:41.147Z,14.80
2018-11-05T08:38:09.450Z,13.97
2018-11-05T08:40:37.493Z,8.73
2018-11-05T08:43:06.862Z,10.93
2018-11-05T08:45:36.002Z,14.33
2018-11-05T08:48:04.335Z,15.27
2018-11-05T08:50:32.444Z,15.40
2018-11-05T08:53:00.430Z,15.83
2018-11-05T08:55:28.508Z,14.73
2018-11-05T08:57:57.267Z,15.57
2018-11-05T09:00:30.834Z,15.83
2018-11-05T09:02:58.914Z,14.53
2018-11-05T09:05:26.981Z,14.37
2018-11-05T09:07:55.454Z,14.63
2018-11-05T09:10:23.718Z,14.87
2018-11-05T09:12:51.712Z,20.00
2018-11-05T09:15:20.786Z,12.37
2018-11-05T09:17:49.857Z,11.23
2018-11-05T09:20:18.569Z,15.70
2018-11-05T09:22:47.327Z,14.37
2018-11-05T09:25:15.998Z,14.73
2018-11-05T09:27:44.178Z,14.50
2018-11-05T09:30:14.719Z,14.53
2018-11-05T09:32:44.668Z,13.40
2018-11-05T09:35:12.822Z,15.47
2018-11-05T09:37:40.873Z,13.60
2018-11-05T09:40:12.390Z,9.27
2018-11-05T09:42:45.396Z,12.50
2018-11-05T09:45:17.143Z,11.27
2018-11-05T09:47:45.747Z,11.23
2018-11-05T09:50:14.028Z,13.57
2018-11-05T09:52:42.374Z,13.30
2018-11-05T09:55:11.412Z,14.33
2018-11-05T09:57:39.562Z,13.80
2018-11-05T10:00:15.370Z,12.73
2018-11-05T10:02:48.851Z,15.87
2018-11-05T10:05:17.403Z,12.90
2018-11-05T10:08:02.896Z,13.17
2018-11-05T10:10:31.483Z,12.77
2018-11-05T10:12:59.578Z,9.20
2018-11-05T10:15:27.600Z,10.47
2018-11-05T10:17:55.693Z,13.37
2018-11-05T10:20:24.474Z,9.87
2018-11-05T10:22:52.837Z,16.73
2018-11-05T10:25:21.827Z,12.93
2018-11-05T10:27:50.822Z,13.00
2018-11-05T10:30:21.067Z,9.30
2018-11-05T10:32:49.888Z,10.77
2018-11-05T10:35:18.370Z,12.60
2018-11-05T10:37:46.374Z,10.83
2018-11-05T10:40:17.204Z,12.30
2018-11-05T10:42:47.626Z,11.60
2018-11-05T10:45:16.829Z,11.33
2018-11-05T10:47:45.236Z,13.30
2018-11-05T10:50:14.709Z,14.20
2018-11-05T10:52:43.937Z,11.77
2018-11-05T10:55:12.092Z,12.70
2018-11-05T10:57:40.861Z,12.27
2018-11-05T11:00:18.469Z,15.47
2018-11-05T11:02:51.948Z,16.00
2018-11-05T11:05:21.466Z,9.50
2018-11-05T11:07:49.618Z,13.40
2018-11-05T11:10:17.716Z,13.13
2018-11-05T11:12:45.782Z,12.97
2018-11-05T11:15:13.915Z,9.97
2018-11-05T11:18:23.519Z,11.90
2018-11-05T11:23:47.198Z,15.53
2018-11-05T11:26:57.362Z,12.50
2018-11-05T11:29:25.478Z,12.17
2018-11-05T11:31:53.435Z,15.67
2018-11-05T11:34:21.398Z,13.30
2018-11-05T11:36:49.379Z,13.80
2018-11-05T11:39:17.374Z,13.50
2018-11-05T11:41:45.600Z,13.87
2018-11-05T11:44:14.474Z,14.27
2018-11-05T11:46:42.680Z,14.70
2018-11-05T11:49:11.044Z,11.90
2018-11-05T11:51:39.481Z,9.17
2018-11-05T11:54:07.620Z,10.07
2018-11-05T11:56:36.306Z,11.07
2018-11-05T11:59:04.859Z,10.70
2018-11-05T12:01:37.510Z,9.93
2018-11-05T12:04:06.892Z,10.87
2018-11-05T12:06:35.034Z,9.60
2018-11-05T12:09:03.414Z,9.97
2018-11-05T12:11:39.666Z,7.70
2018-11-05T12:14:07.868Z,9.10
2018-11-05T12:16:38.795Z,8.90
2018-11-05T12:19:07.047Z,7.67
2018-11-05T12:21:35.472Z,9.37
2018-11-05T12:24:03.796Z,8.03
2018-11-05T12:26:33.121Z,8.50
2018-11-05T12:29:01.446Z,10.13
2018-11-05T12:31:30.470Z,9.43
2018-11-05T12:33:58.783Z,7.57
2018-11-05T12:36:26.743Z,6.53
2018-11-05T12:38:54.758Z,5.60
2018-11-05T12:41:23.367Z,7.30
2018-11-05T12:43:52.612Z,6.53
2018-11-05T12:46:20.600Z,6.00
2018-11-05T12:48:49.630Z,8.13
2018-11-05T12:51:17.624Z,4.27
2018-11-05T12:53:45.950Z,5.73
2018-11-05T12:56:14.164Z,5.27
2018-11-05T12:58:42.215Z,6.63
2018-11-05T13:01:10.196Z,5.33
2018-11-05T13:03:38.133Z,5.53
2018-11-05T13:06:06.252Z,5.93
2018-11-05T13:08:34.361Z,4.83
2018-11-05T13:11:02.367Z,5.80
2018-11-05T13:13:30.493Z,4.40
2018-11-05T13:15:58.772Z,3.67
2018-11-05T13:18:27.013Z,5.30
2018-11-05T13:20:55.094Z,5.90
2018-11-05T13:23:28.586Z,5.00
2018-11-05T13:25:56.997Z,5.90
2018-11-05T13:28:25.253Z,4.53
2018-11-05T13:30:53.164Z,5.23
2018-11-05T13:33:21.322Z,4.83
2018-11-05T13:35:49.305Z,5.70
2018-11-05T13:38:18.203Z,5.67
2018-11-05T13:40:45.816Z,5.50
2018-11-05T13:43:13.795Z,6.10
2018-11-05T13:45:42.166Z,6.43
2018-11-05T13:48:10.301Z,7.03
2018-11-05T13:50:38.755Z,6.57
2018-11-05T13:53:06.744Z,5.67
2018-11-05T13:55:34.790Z,6.53
2018-11-05T13:58:02.781Z,5.03
2018-11-05T14:00:30.838Z,3.80
2018-11-05T14:02:59.124Z,4.97
2018-11-05T14:05:27.197Z,6.70
2018-11-05T14:07:55.429Z,6.20
2018-11-05T14:10:23.412Z,6.63
2018-11-05T14:12:51.683Z,6.43
2018-11-05T14:15:20.124Z,5.73
2018-11-05T14:17:48.222Z,5.80
2018-11-05T14:20:17.618Z,5.37
2018-11-05T14:22:45.662Z,6.57
2018-11-05T14:25:15.879Z,5.80
2018-11-05T14:27:46.330Z,8.53
2018-11-05T14:30:14.518Z,9.10
2018-11-05T14:32:43.508Z,7.60
2018-11-05T14:35:11.516Z,6.03
2018-11-05T14:37:39.823Z,5.50
2018-11-05T14:40:09.031Z,7.77
2018-11-05T14:42:37.225Z,7.37
2018-11-05T14:45:07.472Z,6.60
2018-11-05T14:47:35.378Z,6.50
2018-11-05T14:50:03.751Z,7.37
2018-11-05T14:52:31.895Z,8.23
2018-11-05T14:54:59.956Z,6.77
2018-11-05T14:57:28.324Z,9.13
2018-11-05T14:59:56.532Z,8.50
2018-11-05T15:02:29.987Z,9.47
2018-11-05T15:04:58.048Z,7.67
2018-11-05T15:07:26.071Z,6.43
2018-11-05T15:09:54.110Z,6.30
2018-11-05T15:12:22.213Z,7.13
2018-11-05T15:14:50.322Z,6.27
2018-11-05T15:17:18.997Z,6.50
2018-11-05T15:19:47.693Z,6.70
2018-11-05T15:22:15.815Z,5.90
2018-11-05T15:24:44.115Z,6.30
2018-11-05T15:27:12.172Z,6.17
2018-11-05T15:29:40.276Z,5.90
2018-11-05T15:32:08.778Z,6.33
2018-11-05T15:34:36.960Z,6.63
2018-11-05T15:37:05.135Z,6.57
2018-11-05T15:39:33.034Z,5.90
2018-11-05T15:42:01.123Z,6.10
2018-11-05T15:44:29.013Z,6.60
2018-11-05T15:46:57.089Z,6.47
2018-11-05T15:49:25.093Z,5.73
2018-11-05T15:51:53.432Z,6.07
2018-11-05T15:54:21.387Z,6.17
2018-11-05T15:56:49.216Z,5.40
2018-11-05T15:59:17.229Z,6.27
2018-11-05T16:01:45.414Z,6.97
2018-11-05T16:04:13.551Z,8.73
2018-11-05T16:06:41.887Z,9.33
2018-11-05T16:09:11.383Z,8.93
2018-11-05T16:11:39.712Z,10.43
2018-11-05T16:14:07.982Z,11.27
2018-11-05T16:16:36.170Z,11.30
2018-11-05T16:19:04.284Z,10.37
2018-11-05T16:21:35.775Z,11.47
2018-11-05T16:24:03.851Z,10.57
2018-11-05T16:26:32.280Z,12.87
2018-11-05T16:29:00.400Z,14.13
2018-11-05T16:31:29.543Z,11.60
2018-11-05T16:33:57.739Z,10.67
2018-11-05T16:36:25.907Z,13.67
2018-11-05T16:38:53.981Z,12.57
2018-11-05T16:41:21.899Z,14.73
2018-11-05T16:43:49.947Z,12.93
2018-11-05T16:46:18.474Z,9.70
2018-11-05T16:48:46.625Z,8.97
2018-11-05T16:51:14.855Z,11.00
2018-11-05T16:53:43.006Z,10.13
2018-11-05T16:56:10.919Z,16.77
2018-11-05T16:58:38.847Z,16.60
2018-11-05T17:01:07.180Z,17.20
2018-11-05T17:03:35.695Z,18.73
2018-11-05T17:06:05.127Z,16.23
2018-11-05T17:08:41.023Z,16.77
2018-11-05T17:11:09.142Z,15.83
2018-11-05T17:13:37.783Z,15.13
2018-11-05T17:16:07.799Z,19.23
2018-11-05T17:18:36.065Z,18.23
2018-11-05T17:21:04.089Z,19.77
2018-11-05T17:23:37.449Z,15.47
2018-11-05T17:26:07.720Z,13.70
2018-11-05T17:28:36.081Z,16.07
2018-11-05T17:31:06.798Z,13.63
2018-11-05T17:33:39.291Z,13.97
2018-11-05T17:36:07.270Z,16.47
2018-11-05T17:38:35.310Z,14.93
2018-11-05T17:41:03.356Z,17.27
2018-11-05T17:43:31.426Z,16.20
2018-11-05T17:46:00.036Z,18.23
2018-11-05T17:48:28.096Z,13.53
2018-11-05T17:50:56.239Z,16.60
2018-11-05T17:53:24.528Z,14.37
2018-11-05T17:55:52.887Z,15.77
2018-11-05T17:58:20.987Z,16.27
2018-11-05T18:00:49.030Z,14.40
2018-11-05T18:03:16.919Z,20.33
2018-11-05T18:05:45.192Z,17.27
2018-11-05T18:08:13.952Z,18.63
2018-11-05T18:10:42.763Z,16.97
2018-11-05T18:13:10.754Z,16.80
2018-11-05T18:15:39.155Z,17.43
2018-11-05T18:18:07.091Z,13.23
2018-11-05T18:20:35.698Z,17.73
2018-11-05T18:23:04.624Z,16.83
2018-11-05T18:25:32.649Z,14.50
2018-11-05T18:28:00.811Z,13.50
2018-11-05T18:30:28.759Z,15.40
2018-11-05T18:32:56.943Z,14.93
2018-11-05T18:35:26.111Z,15.80
2018-11-05T18:37:54.233Z,14.17
2018-11-05T18:40:22.282Z,17.13
2018-11-05T18:42:50.282Z,17.67
2018-11-05T18:45:18.560Z,15.63
2018-11-05T18:47:46.659Z,17.00
2018-11-05T18:50:16.837Z,17.03
2018-11-05T18:52:45.240Z,16.70
2018-11-05T18:55:14.485Z,16.63
2018-11-05T18:57:42.554Z,13.43
2018-11-05T19:00:19.324Z,15.50
2018-11-05T19:02:48.777Z,14.63
2018-11-05T19:05:26.127Z,15.70
2018-11-05T19:07:54.151Z,15.30
2018-11-05T19:10:22.222Z,15.03
2018-11-05T19:12:51.059Z,15.97
2018-11-05T19:15:19.234Z,15.97
2018-11-05T19:17:48.570Z,17.20
2018-11-05T19:20:16.934Z,18.20
2018-11-05T19:22:45.495Z,16.80
2018-11-05T19:25:14.491Z,18.13
2018-11-05T19:27:42.777Z,17.97
2018-11-05T19:30:13.539Z,16.73
2018-11-05T19:32:43.067Z,13.60
2018-11-05T19:35:11.834Z,19.03
2018-11-05T19:37:40.267Z,17.03
2018-11-05T19:40:09.910Z,17.77
2018-11-05T19:42:38.114Z,18.57
2018-11-05T19:45:09.352Z,18.60
2018-11-05T19:47:37.576Z,15.67
2018-11-05T19:50:07.356Z,18.23
2018-11-05T19:52:35.493Z,16.67
2018-11-05T19:55:03.594Z,21.87
2018-11-05T19:57:31.631Z,17.23
2018-11-05T19:59:59.576Z,19.57
2018-11-05T20:02:30.270Z,17.37
2018-11-05T20:04:58.670Z,19.40
2018-11-05T20:07:27.389Z,20.30
2018-11-05T20:09:55.415Z,17.67
2018-11-05T20:12:23.399Z,20.00
2018-11-05T20:14:51.377Z,16.77
2018-11-05T20:17:19.523Z,16.77
2018-11-05T20:19:47.569Z,18.00
2018-11-05T20:22:15.691Z,18.23
2018-11-05T20:24:43.547Z,17.47
2018-11-05T20:27:11.621Z,17.47
2018-11-05T20:29:39.639Z,18.30
2018-11-05T20:32:07.913Z,15.73
2018-11-05T20:34:35.903Z,19.90
2018-11-05T20:37:03.866Z,20.27
2018-11-05T20:39:31.968Z,22.27
2018-11-05T20:42:00.119Z,21.40
2018-11-05T20:44:28.177Z,18.67
2018-11-05T20:46:56.118Z,19.93
2018-11-05T20:49:24.122Z,21.33
2018-11-05T20:51:52.137Z,22.67
2018-11-05T20:54:20.243Z,19.37
2018-11-05T20:56:48.260Z,23.23
2018-11-05T20:59:16.254Z,28.10
2018-11-05T21:01:44.380Z,30.30
2018-11-05T21:04:12.566Z,26.87
2018-11-05T21:06:41.723Z,21.23
2018-11-05T21:09:10.839Z,27.23
2018-11-05T21:11:38.954Z,26.10
2018-11-05T21:14:06.979Z,24.83
2018-11-05T21:16:35.349Z,24.23
2018-11-05T21:19:03.302Z,25.23
2018-11-05T21:21:32.242Z,23.00
2018-11-05T21:24:00.582Z,25.33
2018-11-05T21:26:28.838Z,28.03
2018-11-05T21:28:56.871Z,31.07
2018-11-05T21:31:24.782Z,27.80
2018-11-05T21:33:52.727Z,29.00
2018-11-05T21:36:20.780Z,30.33
2018-11-05T21:38:48.868Z,30.73
2018-11-05T21:41:16.881Z,29.60
2018-11-05T21:43:45.020Z,32.77
2018-11-05T21:46:13.006Z,34.13
2018-11-05T21:48:41.006Z,34.20
2018-11-05T21:51:08.913Z,28.67
2018-11-05T21:53:36.875Z,33.80
2018-11-05T21:56:05.121Z,35.13
2018-11-05T21:58:33.125Z,36.10
2018-11-05T22:01:07.714Z,40.87
2018-11-05T22:03:36.071Z,38.00
2018-11-05T22:06:04.069Z,35.33
2018-11-05T22:08:32.052Z,40.33
2018-11-05T22:11:00.020Z,37.13
2018-11-05T22:13:28.168Z,35.87
2018-11-05T22:15:56.163Z,32.40
2018-11-05T22:18:24.111Z,33.57
2018-11-05T22:20:52.018Z,34.10
2018-11-05T22:23:20.251Z,31.37
2018-11-05T22:25:48.527Z,20.33
2018-11-05T22:28:16.481Z,24.70
2018-11-05T22:30:44.426Z,36.53
2018-11-05T22:33:12.398Z,35.60
2018-11-05T22:35:40.329Z,27.63
2018-11-05T22:38:08.354Z,38.20
2018-11-05T22:40:36.396Z,29.20
2018-11-05T22:43:04.460Z,37.50
2018-11-05T22:45:32.413Z,37.50
2018-11-05T22:48:00.702Z,24.17
2018-11-05T22:50:28.756Z,34.30
2018-11-05T22:52:56.732Z,31.30
2018-11-05T22:55:24.755Z,35.63
2018-11-05T22:57:52.719Z,32.50
2018-11-05T23:00:26.434Z,31.17
2018-11-05T23:02:59.877Z,32.93
2018-11-05T23:05:28.861Z,28.77
2018-11-05T23:07:56.807Z,29.37
2018-11-05T23:10:24.774Z,33.50
2018-11-05T23:12:52.811Z,34.50
2018-11-05T23:15:21.007Z,37.20
2018-11-05T23:17:49.207Z,35.30
2018-11-05T23:20:17.562Z,33.70
2018-11-05T23:22:52.204Z,32.37
2018-11-05T23:25:20.196Z,33.90
2018-11-05T23:27:48.084Z,35.93
2018-11-05T23:30:16.012Z,34.57
2018-11-05T23:32:44.058Z,34.70
2018-11-05T23:35:12.197Z,34.10
2018-11-05T23:37:41.082Z,39.98
2018-11-05T23:40:09.264Z,35.77
2018-11-05T23:42:37.925Z,35.83
2018-11-05T23:45:10.044Z,36.07
2018-11-05T23:47:38.117Z,38.70
2018-11-05T23:50:06.102Z,39.40
2018-11-05T23:52:36.776Z,39.30
2018-11-05T23:55:05.147Z,37.37
2018-11-05T23:57:34.047Z,41.33
